Asian Infinity — 3EVP3 — position and weather

sailwx.info

Track history (hours):
 
Tides and Currents Weather Stations Pressure Air Temp Water Temp Dewpoint Dewpoint Depression Visibility Wind Speed Wind Dir Waves Ship Positions

Asian Infinity

Last reported at 2016-Feb-08 09:33 UTC. Time now 2016-Feb-09 03:14 UTC.
Position N 35°05' E 139°41'.

Length 104 m; draft 5.3 m.

Type: Cargo ship. MMSI: 351868000.

Date/timePositionNaut miles runAvg speedWind from/ knotsBaromVisibWave heightAir tempDewpointWater temp
2016-Feb-08 09:33N 35°05' E 139°41'1111.3
2016-Feb-08 08:33N 35°16' E 139°46'1111.1
2016-Feb-08 07:34N 35°27' E 139°42'2 1.5
2016-Feb-08 06:32N 35°27' E 139°40'0 0.0
2016-Feb-08 05:32N 35°27' E 139°40'0 0.0
2016-Feb-08 04:32N 35°27' E 139°40'0 0.0
2016-Feb-08 03:32N 35°27' E 139°40'0 0.0
2016-Feb-08 02:32N 35°27' E 139°40'0 0.0
2016-Feb-08 01:32N 35°27' E 139°40'0 0.0
2016-Feb-08 00:32N 35°27' E 139°40'0 0.0
2016-Feb-07 23:32N 35°27' E 139°40'0 0.0
2016-Feb-07 22:33N 35°27' E 139°40'2 1.7
2016-Feb-07 21:33N 35°26' E 139°42'0 0.0
2016-Feb-07 20:33N 35°26' E 139°42'0 0.0
2016-Feb-07 19:33N 35°26' E 139°42'0 0.0
2016-Feb-07 18:33N 35°26' E 139°42'0 0.0
2016-Feb-07 17:33N 35°26' E 139°42'0 0.0
2016-Feb-07 16:33N 35°26' E 139°42'0 0.0
2016-Feb-07 15:33N 35°26' E 139°42'0 0.1
2016-Feb-07 14:33N 35°26' E 139°42'0 0.0
2016-Feb-07 13:33N 35°26' E 139°42'0 0.0
2016-Feb-07 12:33N 35°26' E 139°42'0 0.0
2016-Feb-07 11:33N 35°26' E 139°42'0 0.0
2016-Feb-07 10:33N 35°26' E 139°42'0 0.0
2016-Feb-07 09:33N 35°26' E 139°42'0 0.0
2016-Feb-07 08:33N 35°26' E 139°42'0 0.0
2016-Feb-07 07:33N 35°26' E 139°42'0 0.0
2016-Feb-07 06:33N 35°26' E 139°42'0 0.0
2016-Feb-07 05:33N 35°26' E 139°42'0 0.0
2016-Feb-07 04:33N 35°26' E 139°42'0 0.0
2016-Feb-07 03:33N 35°26' E 139°42'0 0.0
2016-Feb-07 02:33N 35°26' E 139°42'0 0.0
2016-Feb-07 01:33N 35°26' E 139°42'0 0.0
2016-Feb-07 00:33N 35°26' E 139°42'0 0.0
2016-Feb-06 23:33N 35°26' E 139°42'0 0.0
2016-Feb-06 22:33N 35°26' E 139°42'3 3.5
2016-Feb-06 21:33N 35°27' E 139°46'3 2.7
2016-Feb-06 20:32N 35°29' E 139°44'0 0.0
2016-Feb-06 19:32N 35°29' E 139°44'0 0.0
2016-Feb-06 18:29N 35°29' E 139°44'0 0.0
2016-Feb-06 17:32N 35°29' E 139°44'0 0.0
2016-Feb-06 16:32N 35°29' E 139°44'0 0.0
2016-Feb-06 15:32N 35°29' E 139°44'0 0.0
2016-Feb-06 14:32N 35°29' E 139°44'0 0.0
2016-Feb-06 13:32N 35°29' E 139°44'0 0.0
2016-Feb-06 12:32N 35°29' E 139°44'0 0.0
2016-Feb-06 11:32N 35°29' E 139°44'0 0.0
2016-Feb-06 10:32N 35°29' E 139°44'0 0.0
2016-Feb-06 09:32N 35°29' E 139°44'0 0.0
2016-Feb-06 08:32N 35°29' E 139°44'0 0.0
2016-Feb-06 07:29N 35°29' E 139°44'0 0.0
2016-Feb-06 06:32N 35°29' E 139°44'0 0.0
2016-Feb-06 05:32N 35°29' E 139°44'2 1.7
2016-Feb-06 04:33N 35°29' E 139°46'0 0.1
2016-Feb-06 03:32N 35°29' E 139°46'2 2.4
2016-Feb-06 02:33N 35°27' E 139°46'1010.2
2016-Feb-06 01:33N 35°16' E 139°46'1010.5
2016-Feb-06 00:33N 35°06' E 139°45'  
2016-Feb-01 16:26N 37°52' E 121°55'98 6.0
2016-Feb-01 00:15N 37°25' E 119°57'0 0.0
2016-Jan-30 22:21N 37°25' E 119°57'132 5.1
2016-Jan-29 20:34N 38°57' E 117°56'9 8.5
2016-Jan-29 19:33N 38°59' E 117°45'0 0.1
2016-Jan-29 18:31N 38°59' E 117°45'0 0.0
2016-Jan-29 16:31N 38°59' E 117°45'0 0.0
2016-Jan-29 15:07N 38°59' E 117°45'0 0.0
2016-Jan-29 14:25N 38°59' E 117°45'0 0.0
2016-Jan-29 13:31N 38°59' E 117°45'0 0.0
2016-Jan-29 12:19N 38°59' E 117°45'0 0.0
2016-Jan-29 11:13N 38°59' E 117°45'0 0.0
2016-Jan-29 10:19N 38°59' E 117°45'  
Track history (hours):
 
Tides and Currents Weather Stations Pressure Air Temp Water Temp Dewpoint Dewpoint Depression Visibility Wind Speed Wind Dir Waves Ship Positions

Asian Infinity

Last reported at 2016-Feb-08 09:33 UTC. Time now 2016-Feb-09 03:14 UTC.
Position N 35°05' E 139°41'.

Length 104 m; draft 5.3 m.

Type: Cargo ship. MMSI: 351868000.

Date/timePositionNaut miles runAvg speedWind from/ knotsBaromVisibWave heightAir tempDewpointWater temp
2016-Feb-08 09:33N 35°05' E 139°41'1111.3
2016-Feb-08 08:33N 35°16' E 139°46'1111.1
2016-Feb-08 07:34N 35°27' E 139°42'2 1.5
2016-Feb-08 06:32N 35°27' E 139°40'0 0.0
2016-Feb-08 05:32N 35°27' E 139°40'0 0.0
2016-Feb-08 04:32N 35°27' E 139°40'0 0.0
2016-Feb-08 03:32N 35°27' E 139°40'0 0.0
2016-Feb-08 02:32N 35°27' E 139°40'0 0.0
2016-Feb-08 01:32N 35°27' E 139°40'0 0.0
2016-Feb-08 00:32N 35°27' E 139°40'0 0.0
2016-Feb-07 23:32N 35°27' E 139°40'0 0.0
2016-Feb-07 22:33N 35°27' E 139°40'2 1.7
2016-Feb-07 21:33N 35°26' E 139°42'0 0.0
2016-Feb-07 20:33N 35°26' E 139°42'0 0.0
2016-Feb-07 19:33N 35°26' E 139°42'0 0.0
2016-Feb-07 18:33N 35°26' E 139°42'0 0.0
2016-Feb-07 17:33N 35°26' E 139°42'0 0.0
2016-Feb-07 16:33N 35°26' E 139°42'0 0.0
2016-Feb-07 15:33N 35°26' E 139°42'0 0.1
2016-Feb-07 14:33N 35°26' E 139°42'0 0.0
2016-Feb-07 13:33N 35°26' E 139°42'0 0.0
2016-Feb-07 12:33N 35°26' E 139°42'0 0.0
2016-Feb-07 11:33N 35°26' E 139°42'0 0.0
2016-Feb-07 10:33N 35°26' E 139°42'0 0.0
2016-Feb-07 09:33N 35°26' E 139°42'0 0.0
2016-Feb-07 08:33N 35°26' E 139°42'0 0.0
2016-Feb-07 07:33N 35°26' E 139°42'0 0.0
2016-Feb-07 06:33N 35°26' E 139°42'0 0.0
2016-Feb-07 05:33N 35°26' E 139°42'0 0.0
2016-Feb-07 04:33N 35°26' E 139°42'0 0.0
2016-Feb-07 03:33N 35°26' E 139°42'0 0.0
2016-Feb-07 02:33N 35°26' E 139°42'0 0.0
2016-Feb-07 01:33N 35°26' E 139°42'0 0.0
2016-Feb-07 00:33N 35°26' E 139°42'0 0.0
2016-Feb-06 23:33N 35°26' E 139°42'0 0.0
2016-Feb-06 22:33N 35°26' E 139°42'3 3.5
2016-Feb-06 21:33N 35°27' E 139°46'3 2.7
2016-Feb-06 20:32N 35°29' E 139°44'0 0.0
2016-Feb-06 19:32N 35°29' E 139°44'0 0.0
2016-Feb-06 18:29N 35°29' E 139°44'0 0.0
2016-Feb-06 17:32N 35°29' E 139°44'0 0.0
2016-Feb-06 16:32N 35°29' E 139°44'0 0.0
2016-Feb-06 15:32N 35°29' E 139°44'0 0.0
2016-Feb-06 14:32N 35°29' E 139°44'0 0.0
2016-Feb-06 13:32N 35°29' E 139°44'0 0.0
2016-Feb-06 12:32N 35°29' E 139°44'0 0.0
2016-Feb-06 11:32N 35°29' E 139°44'0 0.0
2016-Feb-06 10:32N 35°29' E 139°44'0 0.0
2016-Feb-06 09:32N 35°29' E 139°44'0 0.0
2016-Feb-06 08:32N 35°29' E 139°44'0 0.0
2016-Feb-06 07:29N 35°29' E 139°44'0 0.0
2016-Feb-06 06:32N 35°29' E 139°44'0 0.0
2016-Feb-06 05:32N 35°29' E 139°44'2 1.7
2016-Feb-06 04:33N 35°29' E 139°46'0 0.1
2016-Feb-06 03:32N 35°29' E 139°46'2 2.4
2016-Feb-06 02:33N 35°27' E 139°46'1010.2
2016-Feb-06 01:33N 35°16' E 139°46'1010.5
2016-Feb-06 00:33N 35°06' E 139°45'  
2016-Feb-01 16:26N 37°52' E 121°55'98 6.0
2016-Feb-01 00:15N 37°25' E 119°57'0 0.0
2016-Jan-30 22:21N 37°25' E 119°57'132 5.1
2016-Jan-29 20:34N 38°57' E 117°56'9 8.5
2016-Jan-29 19:33N 38°59' E 117°45'0 0.1
2016-Jan-29 18:31N 38°59' E 117°45'0 0.0
2016-Jan-29 16:31N 38°59' E 117°45'0 0.0
2016-Jan-29 15:07N 38°59' E 117°45'0 0.0
2016-Jan-29 14:25N 38°59' E 117°45'0 0.0
2016-Jan-29 13:31N 38°59' E 117°45'0 0.0
2016-Jan-29 12:19N 38°59' E 117°45'0 0.0
2016-Jan-29 11:13N 38°59' E 117°45'0 0.0
2016-Jan-29 10:19N 38°59' E 117°45'  

Dump ship's entire track history